sensor_id;sensor_type;location;lat;lon;timestamp;pressure;altitude;pressure_sealevel;temperature;humidity
1371;BME280;14306;49.942;11.570;2022-08-19T00:01:34;96936.25;;;20.64;98.59
1371;BME280;14306;49.942;11.570;2022-08-19T00:04:06;96937.00;;;20.61;98.41
1371;BME280;14306;49.942;11.570;2022-08-19T00:06:36;96937.41;;;20.59;98.33
1371;BME280;14306;49.942;11.570;2022-08-19T00:09:05;96932.31;;;20.65;98.38
1371;BME280;14306;49.942;11.570;2022-08-19T00:11:34;96933.41;;;20.53;98.38
1371;BME280;14306;49.942;11.570;2022-08-19T00:14:06;96940.97;;;20.63;98.51
1371;BME280;14306;49.942;11.570;2022-08-19T00:16:36;96950.34;;;20.55;98.47
1371;BME280;14306;49.942;11.570;2022-08-19T00:19:06;96940.91;;;20.56;97.94
1371;BME280;14306;49.942;11.570;2022-08-19T00:21:34;96933.47;;;20.17;98.65
1371;BME280;14306;49.942;11.570;2022-08-19T00:24:05;96912.03;;;20.00;100.00
1371;BME280;14306;49.942;11.570;2022-08-19T00:26:33;96910.63;;;19.80;100.00
1371;BME280;14306;49.942;11.570;2022-08-19T00:29:05;96912.91;;;19.74;100.00
1371;BME280;14306;49.942;11.570;2022-08-19T00:31:34;96921.50;;;19.69;100.00
1371;BME280;14306;49.942;11.570;2022-08-19T00:34:02;96925.81;;;19.70;100.00
1371;BME280;14306;49.942;11.570;2022-08-19T00:36:31;96918.13;;;19.83;100.00
1371;BME280;14306;49.942;11.570;2022-08-19T00:39:00;96915.03;;;19.88;100.00
1371;BME280;14306;49.942;11.570;2022-08-19T00:41:28;96912.75;;;19.97;99.62
1371;BME280;14306;49.942;11.570;2022-08-19T00:43:58;96912.31;;;19.91;99.82
1371;BME280;14306;49.942;11.570;2022-08-19T00:46:29;96916.16;;;19.83;99.97
1371;BME280;14306;49.942;11.570;2022-08-19T00:48:58;96912.09;;;19.74;100.00
1371;BME280;14306;49.942;11.570;2022-08-19T00:51:29;96914.81;;;19.70;100.00
1371;BME280;14306;49.942;11.570;2022-08-19T00:53:59;96906.09;;;19.61;100.00
1371;BME280;14306;49.942;11.570;2022-08-19T00:56:29;96903.75;;;19.63;99.93
1371;BME280;14306;49.942;11.570;2022-08-19T00:58:58;96903.09;;;19.73;99.88
1371;BME280;14306;49.942;11.570;2022-08-19T01:01:30;96907.38;;;19.71;100.00
1371;BME280;14306;49.942;11.570;2022-08-19T01:03:58;96913.28;;;19.73;99.54
1371;BME280;14306;49.942;11.570;2022-08-19T01:06:26;96912.78;;;19.64;99.49
1371;BME280;14306;49.942;11.570;2022-08-19T01:08:55;96908.03;;;19.61;99.97
1371;BME280;14306;49.942;11.570;2022-08-19T01:11:23;96909.25;;;19.63;99.60
1371;BME280;14306;49.942;11.570;2022-08-19T01:13:52;96900.97;;;19.60;99.49
1371;BME280;14306;49.942;11.570;2022-08-19T01:16:24;96906.84;;;19.58;99.29
1371;BME280;14306;49.942;11.570;2022-08-19T01:18:54;96919.28;;;19.49;99.43
1371;BME280;14306;49.942;11.570;2022-08-19T01:21:28;96917.41;;;19.56;99.17
1371;BME280;14306;49.942;11.570;2022-08-19T01:24:00;96912.59;;;19.50;99.71
1371;BME280;14306;49.942;11.570;2022-08-19T01:26:28;96905.09;;;19.47;100.00
1371;BME280;14306;49.942;11.570;2022-08-19T01:28:59;96900.31;;;19.40;100.00
1371;BME280;14306;49.942;11.570;2022-08-19T01:31:30;96895.88;;;19.29;100.00
1371;BME280;14306;49.942;11.570;2022-08-19T01:34:00;96894.81;;;19.40;100.00
1371;BME280;14306;49.942;11.570;2022-08-19T01:36:30;96905.56;;;19.52;100.00
1371;BME280;14306;49.942;11.570;2022-08-19T01:39:02;96901.09;;;19.70;100.00
1371;BME280;14306;49.942;11.570;2022-08-19T01:41:30;96905.47;;;19.75;100.00
1371;BME280;14306;49.942;11.570;2022-08-19T01:43:59;96914.59;;;19.86;100.00
1371;BME280;14306;49.942;11.570;2022-08-19T01:46:43;96919.34;;;19.89;99.99
1371;BME280;14306;49.942;11.570;2022-08-19T01:49:12;96932.06;;;20.00;100.00
1371;BME280;14306;49.942;11.570;2022-08-19T01:51:40;96931.78;;;20.09;100.00
1371;BME280;14306;49.942;11.570;2022-08-19T01:54:10;96940.88;;;20.13;99.91
1371;BME280;14306;49.942;11.570;2022-08-19T01:56:49;96928.50;;;20.00;100.00
1371;BME280;14306;49.942;11.570;2022-08-19T01:59:19;96935.28;;;19.73;100.00
1371;BME280;14306;49.942;11.570;2022-08-19T02:01:49;96934.16;;;19.77;100.00
1371;BME280;14306;49.942;11.570;2022-08-19T02:04:17;96937.16;;;19.65;100.00
1371;BME280;14306;49.942;11.570;2022-08-19T02:06:46;96939.91;;;19.65;100.00
1371;BME280;14306;49.942;11.570;2022-08-19T02:09:16;96946.59;;;19.68;100.00
1371;BME280;14306;49.942;11.570;2022-08-19T02:11:44;96957.53;;;19.64;100.00
1371;BME280;14306;49.942;11.570;2022-08-19T02:14:12;96965.03;;;19.67;100.00
1371;BME280;14306;49.942;11.570;2022-08-19T02:16:40;96975.78;;;19.79;100.00
1371;BME280;14306;49.942;11.570;2022-08-19T02:19:08;96985.09;;;20.01;100.00
1371;BME280;14306;49.942;11.570;2022-08-19T02:21:37;96989.34;;;20.28;100.00
1371;BME280;14306;49.942;11.570;2022-08-19T02:24:05;96988.38;;;20.46;100.00
1371;BME280;14306;49.942;11.570;2022-08-19T02:26:35;96991.22;;;20.53;99.20
1371;BME280;14306;49.942;11.570;2022-08-19T02:29:03;96985.72;;;20.53;99.42
1371;BME280;14306;49.942;11.570;2022-08-19T02:31:32;96985.88;;;20.71;98.99
1371;BME280;14306;49.942;11.570;2022-08-19T02:34:00;96986.16;;;20.59;99.00
1371;BME280;14306;49.942;11.570;2022-08-19T02:36:28;96992.03;;;20.57;98.85
1371;BME280;14306;49.942;11.570;2022-08-19T02:38:57;96994.97;;;20.75;98.68
1371;BME280;14306;49.942;11.570;2022-08-19T02:41:26;97003.63;;;20.77;98.44
1371;BME280;14306;49.942;11.570;2022-08-19T02:43:57;97004.03;;;20.79;98.37
1371;BME280;14306;49.942;11.570;2022-08-19T02:46:47;97017.50;;;20.87;97.78
1371;BME280;14306;49.942;11.570;2022-08-19T02:49:18;97013.13;;;20.83;97.63
1371;BME280;14306;49.942;11.570;2022-08-19T02:51:47;97015.16;;;20.89;97.73
1371;BME280;14306;49.942;11.570;2022-08-19T02:54:16;97018.00;;;20.96;97.83
1371;BME280;14306;49.942;11.570;2022-08-19T02:56:44;97023.53;;;21.00;97.22
1371;BME280;14306;49.942;11.570;2022-08-19T02:59:14;97021.13;;;20.98;97.22
1371;BME280;14306;49.942;11.570;2022-08-19T03:01:42;97025.13;;;21.04;96.58
1371;BME280;14306;49.942;11.570;2022-08-19T03:04:13;97038.34;;;20.88;97.04
1371;BME280;14306;49.942;11.570;2022-08-19T03:06:44;97047.09;;;20.94;97.08
1371;BME280;14306;49.942;11.570;2022-08-19T03:09:13;97052.88;;;20.89;97.32
1371;BME280;14306;49.942;11.570;2022-08-19T03:11:42;97052.63;;;20.97;97.37
1371;BME280;14306;49.942;11.570;2022-08-19T03:14:10;97042.53;;;20.75;97.24
1371;BME280;14306;49.942;11.570;2022-08-19T03:16:43;97037.44;;;20.74;97.17
1371;BME280;14306;49.942;11.570;2022-08-19T03:19:11;97039.97;;;20.56;98.08
1371;BME280;14306;49.942;11.570;2022-08-19T03:21:42;97042.25;;;20.14;99.09
1371;BME280;14306;49.942;11.570;2022-08-19T03:24:12;97032.16;;;19.96;100.00
1371;BME280;14306;49.942;11.570;2022-08-19T03:26:42;97038.16;;;20.05;99.94
1371;BME280;14306;49.942;11.570;2022-08-19T03:29:11;97033.06;;;20.03;100.00
1371;BME280;14306;49.942;11.570;2022-08-19T03:31:57;97035.91;;;20.10;100.00
1371;BME280;14306;49.942;11.570;2022-08-19T03:34:29;97027.22;;;20.08;99.87
1371;BME280;14306;49.942;11.570;2022-08-19T03:37:02;97009.53;;;20.06;100.00
1371;BME280;14306;49.942;11.570;2022-08-19T03:39:31;96999.72;;;20.08;100.00
1371;BME280;14306;49.942;11.570;2022-08-19T03:41:59;96996.63;;;20.10;100.00
1371;BME280;14306;49.942;11.570;2022-08-19T03:44:49;96996.03;;;20.27;99.53
1371;BME280;14306;49.942;11.570;2022-08-19T03:47:18;96985.91;;;20.34;98.76
1371;BME280;14306;49.942;11.570;2022-08-19T03:49:46;96974.25;;;20.48;98.55
1371;BME280;14306;49.942;11.570;2022-08-19T03:52:14;96961.91;;;20.35;98.53
1371;BME280;14306;49.942;11.570;2022-08-19T03:54:43;96947.72;;;20.29;98.18
1371;BME280;14306;49.942;11.570;2022-08-19T03:57:11;96945.28;;;19.88;100.00
1371;BME280;14306;49.942;11.570;2022-08-19T03:59:40;96945.97;;;19.81;100.00
1371;BME280;14306;49.942;11.570;2022-08-19T04:02:10;96932.06;;;19.67;100.00
1371;BME280;14306;49.942;11.570;2022-08-19T04:04:42;96932.13;;;19.71;100.00
1371;BME280;14306;49.942;11.570;2022-08-19T04:07:12;96926.56;;;19.67;100.00
1371;BME280;14306;49.942;11.570;2022-08-19T04:09:43;96932.25;;;19.81;100.00
1371;BME280;14306;49.942;11.570;2022-08-19T04:12:11;96933.78;;;20.12;100.00
1371;BME280;14306;49.942;11.570;2022-08-19T04:14:40;96939.81;;;20.24;99.68
1371;BME280;14306;49.942;11.570;2022-08-19T04:17:09;96932.47;;;20.39;98.62
1371;BME280;14306;49.942;11.570;2022-08-19T04:19:39;96935.59;;;20.34;98.27
1371;BME280;14306;49.942;11.570;2022-08-19T04:22:09;96930.56;;;20.43;98.49
1371;BME280;14306;49.942;11.570;2022-08-19T04:24:38;96936.03;;;20.39;97.84
1371;BME280;14306;49.942;11.570;2022-08-19T04:27:06;96933.81;;;20.55;97.07
1371;BME280;14306;49.942;11.570;2022-08-19T04:29:34;96935.06;;;20.61;97.02
1371;BME280;14306;49.942;11.570;2022-08-19T04:32:06;96939.47;;;20.69;96.79
1371;BME280;14306;49.942;11.570;2022-08-19T04:34:36;96942.66;;;20.75;96.89
1371;BME280;14306;49.942;11.570;2022-08-19T04:37:26;96962.03;;;20.89;95.89
1371;BME280;14306;49.942;11.570;2022-08-19T04:40:02;96966.06;;;20.98;96.08
1371;BME280;14306;49.942;11.570;2022-08-19T04:42:48;96981.19;;;21.18;95.42
1371;BME280;14306;49.942;11.570;2022-08-19T04:45:16;96992.28;;;21.32;94.79
1371;BME280;14306;49.942;11.570;2022-08-19T04:47:48;96992.03;;;21.51;94.11
1371;BME280;14306;49.942;11.570;2022-08-19T04:50:40;96994.88;;;21.69;93.61
1371;BME280;14306;49.942;11.570;2022-08-19T04:53:10;97006.22;;;21.53;93.12
1371;BME280;14306;49.942;11.570;2022-08-19T04:55:40;97010.97;;;21.56;93.01
1371;BME280;14306;49.942;11.570;2022-08-19T04:58:08;97011.50;;;21.72;92.53
1371;BME280;14306;49.942;11.570;2022-08-19T05:00:38;97033.53;;;21.72;92.45
1371;BME280;14306;49.942;11.570;2022-08-19T05:03:06;97039.09;;;21.79;92.02
1371;BME280;14306;49.942;11.570;2022-08-19T05:05:38;97063.44;;;21.70;91.12
1371;BME280;14306;49.942;11.570;2022-08-19T05:08:12;97063.50;;;21.74;91.52
1371;BME280;14306;49.942;11.570;2022-08-19T05:10:57;97069.78;;;21.74;90.82
1371;BME280;14306;49.942;11.570;2022-08-19T05:13:25;97068.88;;;21.60;90.72
1371;BME280;14306;49.942;11.570;2022-08-19T05:15:56;97069.63;;;21.57;91.27
1371;BME280;14306;49.942;11.570;2022-08-19T05:18:25;97072.53;;;21.74;90.63
1371;BME280;14306;49.942;11.570;2022-08-19T05:21:14;97070.94;;;21.70;90.46
1371;BME280;14306;49.942;11.570;2022-08-19T05:24:02;97070.97;;;21.77;89.98
1371;BME280;14306;49.942;11.570;2022-08-19T05:26:34;97076.91;;;21.75;90.19
1371;BME280;14306;49.942;11.570;2022-08-19T05:29:03;97082.50;;;21.89;90.05
1371;BME280;14306;49.942;11.570;2022-08-19T05:31:32;97082.16;;;22.01;89.34
1371;BME280;14306;49.942;11.570;2022-08-19T05:34:01;97080.06;;;21.77;89.57
1371;BME280;14306;49.942;11.570;2022-08-19T05:36:44;97075.97;;;21.61;90.55
1371;BME280;14306;49.942;11.570;2022-08-19T05:39:17;97080.34;;;21.65;90.56
1371;BME280;14306;49.942;11.570;2022-08-19T05:41:50;97083.91;;;21.66;90.28
1371;BME280;14306;49.942;11.570;2022-08-19T05:44:19;97085.94;;;21.76;88.92
1371;BME280;14306;49.942;11.570;2022-08-19T05:46:48;97092.94;;;21.66;89.85
1371;BME280;14306;49.942;11.570;2022-08-19T05:49:20;97099.72;;;21.72;89.51
1371;BME280;14306;49.942;11.570;2022-08-19T05:51:49;97092.28;;;21.80;89.18
1371;BME280;14306;49.942;11.570;2022-08-19T05:54:19;97096.44;;;21.56;90.20
1371;BME280;14306;49.942;11.570;2022-08-19T05:56:49;97094.31;;;21.39;91.34
1371;BME280;14306;49.942;11.570;2022-08-19T05:59:17;97104.19;;;21.44;91.06
1371;BME280;14306;49.942;11.570;2022-08-19T06:01:46;97098.25;;;21.42;91.09
1371;BME280;14306;49.942;11.570;2022-08-19T06:04:17;97097.34;;;21.24;91.85
1371;BME280;14306;49.942;11.570;2022-08-19T06:06:50;97094.69;;;21.38;91.25
1371;BME280;14306;49.942;11.570;2022-08-19T06:09:21;97098.38;;;21.56;90.35
1371;BME280;14306;49.942;11.570;2022-08-19T06:11:51;97110.53;;;21.48;90.16
1371;BME280;14306;49.942;11.570;2022-08-19T06:14:24;97100.91;;;21.28;91.41
1371;BME280;14306;49.942;11.570;2022-08-19T06:16:53;97107.34;;;21.46;91.28
1371;BME280;14306;49.942;11.570;2022-08-19T06:19:23;97096.31;;;21.02;92.40
1371;BME280;14306;49.942;11.570;2022-08-19T06:21:52;97108.59;;;21.08;92.67
1371;BME280;14306;49.942;11.570;2022-08-19T06:24:24;97102.34;;;21.11;92.50
1371;BME280;14306;49.942;11.570;2022-08-19T06:26:54;97104.50;;;21.32;91.88
1371;BME280;14306;49.942;11.570;2022-08-19T06:29:28;97097.78;;;21.29;91.89
1371;BME280;14306;49.942;11.570;2022-08-19T06:31:59;97099.88;;;20.99;93.90
1371;BME280;14306;49.942;11.570;2022-08-19T06:34:29;97089.28;;;21.05;93.40
1371;BME280;14306;49.942;11.570;2022-08-19T06:36:59;97103.00;;;20.98;93.60
1371;BME280;14306;49.942;11.570;2022-08-19T06:39:31;97098.47;;;21.19;93.31
1371;BME280;14306;49.942;11.570;2022-08-19T06:42:03;97096.25;;;21.35;92.04
1371;BME280;14306;49.942;11.570;2022-08-19T06:44:37;97098.13;;;21.24;92.87
1371;BME280;14306;49.942;11.570;2022-08-19T06:47:11;97098.25;;;21.38;92.61
1371;BME280;14306;49.942;11.570;2022-08-19T06:49:52;97102.38;;;21.62;91.82
1371;BME280;14306;49.942;11.570;2022-08-19T06:52:26;97108.66;;;21.59;91.08
1371;BME280;14306;49.942;11.570;2022-08-19T06:54:56;97114.09;;;21.52;92.12
1371;BME280;14306;49.942;11.570;2022-08-19T06:57:25;97114.09;;;21.52;91.15
1371;BME280;14306;49.942;11.570;2022-08-19T06:59:54;97115.00;;;21.19;92.97
1371;BME280;14306;49.942;11.570;2022-08-19T07:02:23;97118.38;;;21.02;93.72
1371;BME280;14306;49.942;11.570;2022-08-19T07:04:52;97122.72;;;21.03;94.36
1371;BME280;14306;49.942;11.570;2022-08-19T07:07:23;97114.59;;;21.64;92.51
1371;BME280;14306;49.942;11.570;2022-08-19T07:09:51;97111.25;;;21.85;90.47
1371;BME280;14306;49.942;11.570;2022-08-19T07:12:28;97107.19;;;22.40;88.60
1371;BME280;14306;49.942;11.570;2022-08-19T07:14:58;97108.63;;;22.99;87.58
1371;BME280;14306;49.942;11.570;2022-08-19T07:17:27;97113.44;;;23.30;84.58
1371;BME280;14306;49.942;11.570;2022-08-19T07:19:56;97118.16;;;23.22;85.27
1371;BME280;14306;49.942;11.570;2022-08-19T07:22:32;97122.13;;;23.42;83.78
1371;BME280;14306;49.942;11.570;2022-08-19T07:25:00;97127.25;;;23.89;82.32
1371;BME280;14306;49.942;11.570;2022-08-19T07:27:31;97129.56;;;23.17;84.66
1371;BME280;14306;49.942;11.570;2022-08-19T07:30:01;97133.59;;;24.04;82.04
1371;BME280;14306;49.942;11.570;2022-08-19T07:32:29;97136.34;;;24.04;81.91
1371;BME280;14306;49.942;11.570;2022-08-19T07:34:58;97128.44;;;24.09;80.54
1371;BME280;14306;49.942;11.570;2022-08-19T07:37:27;97126.41;;;24.24;80.30
1371;BME280;14306;49.942;11.570;2022-08-19T07:39:59;97130.81;;;24.07;80.54
1371;BME280;14306;49.942;11.570;2022-08-19T07:42:28;97141.84;;;24.28;79.20
1371;BME280;14306;49.942;11.570;2022-08-19T07:44:58;97149.00;;;23.91;79.59
1371;BME280;14306;49.942;11.570;2022-08-19T07:47:26;97142.28;;;23.92;78.95
1371;BME280;14306;49.942;11.570;2022-08-19T07:50:16;97151.78;;;23.80;80.55
1371;BME280;14306;49.942;11.570;2022-08-19T07:52:45;97145.06;;;23.64;81.97
1371;BME280;14306;49.942;11.570;2022-08-19T07:55:17;97138.31;;;24.14;80.42
1371;BME280;14306;49.942;11.570;2022-08-19T07:58:05;97143.84;;;24.14;81.06
1371;BME280;14306;49.942;11.570;2022-08-19T08:00:35;97140.28;;;24.06;79.76
1371;BME280;14306;49.942;11.570;2022-08-19T08:03:04;97145.06;;;23.81;82.41
1371;BME280;14306;49.942;11.570;2022-08-19T08:05:32;97131.63;;;23.76;81.35
1371;BME280;14306;49.942;11.570;2022-08-19T08:08:18;97126.03;;;24.22;80.42
1371;BME280;14306;49.942;11.570;2022-08-19T08:11:15;97108.28;;;25.05;79.20
1371;BME280;14306;49.942;11.570;2022-08-19T08:13:46;97102.91;;;25.42;77.28
1371;BME280;14306;49.942;11.570;2022-08-19T08:16:34;97108.09;;;25.84;74.61
1371;BME280;14306;49.942;11.570;2022-08-19T08:19:14;97104.44;;;25.98;73.29
1371;BME280;14306;49.942;11.570;2022-08-19T08:21:52;97111.78;;;26.15;71.45
1371;BME280;14306;49.942;11.570;2022-08-19T08:24:20;97107.28;;;25.87;72.90
1371;BME280;14306;49.942;11.570;2022-08-19T08:26:54;97106.56;;;26.61;70.95
1371;BME280;14306;49.942;11.570;2022-08-19T08:29:23;97099.31;;;25.89;70.97
1371;BME280;14306;49.942;11.570;2022-08-19T08:32:02;97095.72;;;26.70;70.85
1371;BME280;14306;49.942;11.570;2022-08-19T08:34:40;97094.78;;;25.65;72.38
1371;BME280;14306;49.942;11.570;2022-08-19T08:37:08;97096.38;;;25.66;72.77
1371;BME280;14306;49.942;11.570;2022-08-19T08:39:37;97105.28;;;25.44;73.47
1371;BME280;14306;49.942;11.570;2022-08-19T08:42:08;97098.22;;;25.36;72.54
1371;BME280;14306;49.942;11.570;2022-08-19T08:44:51;97102.69;;;24.30;77.80
1371;BME280;14306;49.942;11.570;2022-08-19T08:47:22;97112.25;;;23.62;78.97
1371;BME280;14306;49.942;11.570;2022-08-19T08:49:56;97109.38;;;24.32;78.04
1371;BME280;14306;49.942;11.570;2022-08-19T08:52:30;97111.69;;;24.51;75.45
1371;BME280;14306;49.942;11.570;2022-08-19T08:55:11;97113.41;;;24.07;76.52
1371;BME280;14306;49.942;11.570;2022-08-19T08:57:47;97108.19;;;24.37;76.78
1371;BME280;14306;49.942;11.570;2022-08-19T09:00:20;97119.63;;;24.49;76.40
1371;BME280;14306;49.942;11.570;2022-08-19T09:02:50;97112.56;;;24.34;76.41
1371;BME280;14306;49.942;11.570;2022-08-19T09:05:21;97116.78;;;24.70;75.42
1371;BME280;14306;49.942;11.570;2022-08-19T09:07:59;97115.91;;;24.91;75.50
1371;BME280;14306;49.942;11.570;2022-08-19T09:10:32;97121.63;;;24.35;75.22
1371;BME280;14306;49.942;11.570;2022-08-19T09:13:17;97124.00;;;24.43;74.38
1371;BME280;14306;49.942;11.570;2022-08-19T09:15:52;97127.25;;;24.00;76.06
1371;BME280;14306;49.942;11.570;2022-08-19T09:18:24;97123.31;;;23.52;77.78
1371;BME280;14306;49.942;11.570;2022-08-19T09:20:55;97118.56;;;23.45;78.10
1371;BME280;14306;49.942;11.570;2022-08-19T09:23:23;97115.03;;;23.52;78.79
1371;BME280;14306;49.942;11.570;2022-08-19T09:25:52;97120.53;;;23.38;79.76
1371;BME280;14306;49.942;11.570;2022-08-19T09:28:20;97118.19;;;23.75;77.33
1371;BME280;14306;49.942;11.570;2022-08-19T09:30:53;97119.31;;;24.23;75.31
1371;BME280;14306;49.942;11.570;2022-08-19T09:33:21;97130.81;;;23.83;76.44
1371;BME280;14306;49.942;11.570;2022-08-19T09:35:50;97130.84;;;23.93;75.63
1371;BME280;14306;49.942;11.570;2022-08-19T09:38:34;97117.69;;;24.36;73.38
1371;BME280;14306;49.942;11.570;2022-08-19T09:41:11;97121.34;;;24.01;75.00
1371;BME280;14306;49.942;11.570;2022-08-19T09:43:41;97129.59;;;24.12;74.91
1371;BME280;14306;49.942;11.570;2022-08-19T09:46:14;97131.59;;;23.83;75.10
1371;BME280;14306;49.942;11.570;2022-08-19T09:48:44;97124.00;;;23.03;78.08
1371;BME280;14306;49.942;11.570;2022-08-19T09:51:18;97119.28;;;23.00;78.64
1371;BME280;14306;49.942;11.570;2022-08-19T09:53:49;97130.84;;;23.48;77.09
1371;BME280;14306;49.942;11.570;2022-08-19T09:56:22;97130.81;;;23.69;76.20
1371;BME280;14306;49.942;11.570;2022-08-19T09:58:50;97130.44;;;23.63;75.72
1371;BME280;14306;49.942;11.570;2022-08-19T10:01:21;97133.59;;;23.90;75.54
1371;BME280;14306;49.942;11.570;2022-08-19T10:03:51;97126.06;;;23.90;75.67
1371;BME280;14306;49.942;11.570;2022-08-19T10:06:24;97126.88;;;23.80;75.38
1371;BME280;14306;49.942;11.570;2022-08-19T10:09:12;97113.03;;;23.98;76.10
1371;BME280;14306;49.942;11.570;2022-08-19T10:11:43;97116.53;;;24.16;75.13
1371;BME280;14306;49.942;11.570;2022-08-19T10:14:20;97111.84;;;25.67;70.31
1371;BME280;14306;49.942;11.570;2022-08-19T10:16:49;97124.38;;;25.82;68.50
1371;BME280;14306;49.942;11.570;2022-08-19T10:19:18;97124.13;;;25.66;69.21
1371;BME280;14306;49.942;11.570;2022-08-19T10:21:53;97123.72;;;25.10;70.35
1371;BME280;14306;49.942;11.570;2022-08-19T10:24:26;97131.06;;;24.62;71.32
1371;BME280;14306;49.942;11.570;2022-08-19T10:26:55;97120.09;;;24.23;73.27
1371;BME280;14306;49.942;11.570;2022-08-19T10:29:25;97116.94;;;24.18;74.61
1371;BME280;14306;49.942;11.570;2022-08-19T10:31:59;97120.09;;;24.20;74.71
1371;BME280;14306;49.942;11.570;2022-08-19T10:34:30;97122.53;;;23.62;76.70
1371;BME280;14306;49.942;11.570;2022-08-19T10:36:59;97120.13;;;24.13;75.69
1371;BME280;14306;49.942;11.570;2022-08-19T10:39:28;97122.91;;;25.09;72.62
1371;BME280;14306;49.942;11.570;2022-08-19T10:42:08;97115.94;;;25.52;70.41
1371;BME280;14306;49.942;11.570;2022-08-19T10:44:37;97126.34;;;25.85;68.32
1371;BME280;14306;49.942;11.570;2022-08-19T10:47:06;97137.00;;;25.39;69.67
1371;BME280;14306;49.942;11.570;2022-08-19T10:49:51;97142.03;;;24.86;70.30
1371;BME280;14306;49.942;11.570;2022-08-19T10:52:39;97135.50;;;24.38;72.21
1371;BME280;14306;49.942;11.570;2022-08-19T10:55:17;97141.50;;;23.84;74.53
1371;BME280;14306;49.942;11.570;2022-08-19T10:58:04;97127.59;;;24.30;72.58
1371;BME280;14306;49.942;11.570;2022-08-19T11:00:36;97125.94;;;24.53;72.26
1371;BME280;14306;49.942;11.570;2022-08-19T11:03:04;97123.47;;;24.80;70.85
1371;BME280;14306;49.942;11.570;2022-08-19T11:05:35;97122.16;;;25.09;69.80
1371;BME280;14306;49.942;11.570;2022-08-19T11:08:07;97121.63;;;25.28;69.37
1371;BME280;14306;49.942;11.570;2022-08-19T11:10:50;97122.09;;;25.74;68.04
1371;BME280;14306;49.942;11.570;2022-08-19T11:13:20;97120.97;;;25.64;67.66
1371;BME280;14306;49.942;11.570;2022-08-19T11:15:56;97129.31;;;26.09;66.36
1371;BME280;14306;49.942;11.570;2022-08-19T11:18:29;97125.94;;;25.87;66.78
1371;BME280;14306;49.942;11.570;2022-08-19T11:21:05;97121.53;;;25.93;66.47
1371;BME280;14306;49.942;11.570;2022-08-19T11:23:34;97127.03;;;26.00;66.84
1371;BME280;14306;49.942;11.570;2022-08-19T11:26:02;97134.97;;;25.98;66.43
1371;BME280;14306;49.942;11.570;2022-08-19T11:28:31;97126.94;;;24.98;69.02
1371;BME280;14306;49.942;11.570;2022-08-19T11:30:59;97140.22;;;24.38;71.44
1371;BME280;14306;49.942;11.570;2022-08-19T11:33:28;97139.81;;;24.43;72.11
1371;BME280;14306;49.942;11.570;2022-08-19T11:35:57;97137.88;;;24.40;71.54
1371;BME280;14306;49.942;11.570;2022-08-19T11:38:27;97146.25;;;23.73;73.75
1371;BME280;14306;49.942;11.570;2022-08-19T11:40:58;97144.66;;;23.76;74.34
1371;BME280;14306;49.942;11.570;2022-08-19T11:43:27;97147.41;;;23.37;77.72
1371;BME280;14306;49.942;11.570;2022-08-19T11:46:04;97155.78;;;22.51;81.45
1371;BME280;14306;49.942;11.570;2022-08-19T11:48:34;97147.38;;;22.34;86.51
1371;BME280;14306;49.942;11.570;2022-08-19T11:51:05;97141.00;;;22.16;88.46
1371;BME280;14306;49.942;11.570;2022-08-19T11:53:34;97151.00;;;21.80;89.48
1371;BME280;14306;49.942;11.570;2022-08-19T11:56:06;97140.25;;;21.68;90.19
1371;BME280;14306;49.942;11.570;2022-08-19T11:58:35;97144.13;;;21.60;90.48
1371;BME280;14306;49.942;11.570;2022-08-19T12:01:05;97143.56;;;21.88;90.92
1371;BME280;14306;49.942;11.570;2022-08-19T12:03:34;97147.81;;;21.78;88.96
1371;BME280;14306;49.942;11.570;2022-08-19T12:06:04;97142.91;;;21.58;88.64
1371;BME280;14306;49.942;11.570;2022-08-19T12:08:33;97144.81;;;21.50;88.72
1371;BME280;14306;49.942;11.570;2022-08-19T12:11:01;97143.69;;;21.58;90.81
1371;BME280;14306;49.942;11.570;2022-08-19T12:13:31;97142.19;;;21.68;89.54
1371;BME280;14306;49.942;11.570;2022-08-19T12:15:59;97152.84;;;21.66;88.25
1371;BME280;14306;49.942;11.570;2022-08-19T12:18:27;97147.69;;;21.64;88.61
1371;BME280;14306;49.942;11.570;2022-08-19T12:20:55;97155.91;;;21.61;88.15
1371;BME280;14306;49.942;11.570;2022-08-19T12:23:23;97144.72;;;21.83;87.26
1371;BME280;14306;49.942;11.570;2022-08-19T12:25:51;97153.38;;;21.82;85.92
1371;BME280;14306;49.942;11.570;2022-08-19T12:30:52;97149.19;;;22.02;85.35
1371;BME280;14306;49.942;11.570;2022-08-19T12:33:20;97145.28;;;22.06;85.10
1371;BME280;14306;49.942;11.570;2022-08-19T12:35:51;97143.13;;;21.82;86.05
1371;BME280;14306;49.942;11.570;2022-08-19T12:38:20;97138.56;;;22.04;83.89
1371;BME280;14306;49.942;11.570;2022-08-19T12:40:50;97133.53;;;22.20;84.30
1371;BME280;14306;49.942;11.570;2022-08-19T12:43:25;97138.16;;;22.05;84.40
1371;BME280;14306;49.942;11.570;2022-08-19T12:45:55;97149.28;;;22.19;83.13
1371;BME280;14306;49.942;11.570;2022-08-19T12:48:23;97143.66;;;21.98;83.91
1371;BME280;14306;49.942;11.570;2022-08-19T12:51:06;97145.16;;;21.92;82.84
1371;BME280;14306;49.942;11.570;2022-08-19T12:53:35;97137.72;;;21.96;84.03
1371;BME280;14306;49.942;11.570;2022-08-19T12:56:05;97144.94;;;22.22;82.31
1371;BME280;14306;49.942;11.570;2022-08-19T12:58:38;97147.38;;;22.34;82.13
1371;BME280;14306;49.942;11.570;2022-08-19T13:01:16;97152.09;;;22.23;81.88
1371;BME280;14306;49.942;11.570;2022-08-19T13:03:49;97148.47;;;22.12;82.69
1371;BME280;14306;49.942;11.570;2022-08-19T13:06:18;97144.19;;;22.28;81.70
1371;BME280;14306;49.942;11.570;2022-08-19T13:08:47;97142.91;;;22.84;78.58
1371;BME280;14306;49.942;11.570;2022-08-19T13:11:17;97151.19;;;22.84;78.70
1371;BME280;14306;49.942;11.570;2022-08-19T13:13:47;97151.06;;;22.52;79.29
1371;BME280;14306;49.942;11.570;2022-08-19T13:16:18;97154.44;;;23.14;77.18
1371;BME280;14306;49.942;11.570;2022-08-19T13:18:49;97142.69;;;23.45;76.11
1371;BME280;14306;49.942;11.570;2022-08-19T13:21:19;97143.06;;;23.61;75.05
1371;BME280;14306;49.942;11.570;2022-08-19T13:23:49;97141.44;;;24.23;73.04